sensor_id;sensor_type;location;lat;lon;timestamp;P1;durP1;ratioP1;P2;durP2;ratioP2
8594;SDS011;4335;48.860;9.198;2022-07-10T00:00:41;5.80;;;4.07;;
8594;SDS011;4335;48.860;9.198;2022-07-10T00:03:09;5.50;;;4.90;;
8594;SDS011;4335;48.860;9.198;2022-07-10T00:05:39;5.30;;;4.50;;
8594;SDS011;4335;48.860;9.198;2022-07-10T00:08:06;5.30;;;4.10;;
8594;SDS011;4335;48.860;9.198;2022-07-10T00:10:33;3.93;;;3.63;;
8594;SDS011;4335;48.860;9.198;2022-07-10T00:13:01;6.17;;;4.13;;
8594;SDS011;4335;48.860;9.198;2022-07-10T00:15:28;5.43;;;3.73;;
8594;SDS011;4335;48.860;9.198;2022-07-10T00:17:58;4.73;;;3.70;;
8594;SDS011;4335;48.860;9.198;2022-07-10T00:20:28;3.77;;;3.40;;
8594;SDS011;4335;48.860;9.198;2022-07-10T00:22:55;4.27;;;3.50;;
8594;SDS011;4335;48.860;9.198;2022-07-10T00:25:22;4.17;;;3.77;;
8594;SDS011;4335;48.860;9.198;2022-07-10T00:27:48;4.07;;;3.67;;
8594;SDS011;4335;48.860;9.198;2022-07-10T00:30:16;4.27;;;3.50;;
8594;SDS011;4335;48.860;9.198;2022-07-10T00:32:43;3.60;;;3.30;;
8594;SDS011;4335;48.860;9.198;2022-07-10T00:35:11;4.07;;;3.27;;
8594;SDS011;4335;48.860;9.198;2022-07-10T00:37:38;3.90;;;3.60;;
8594;SDS011;4335;48.860;9.198;2022-07-10T00:40:05;4.07;;;3.77;;
8594;SDS011;4335;48.860;9.198;2022-07-10T00:42:33;3.73;;;3.43;;
8594;SDS011;4335;48.860;9.198;2022-07-10T00:45:00;4.17;;;3.77;;
8594;SDS011;4335;48.860;9.198;2022-07-10T00:47:27;4.67;;;3.67;;
8594;SDS011;4335;48.860;9.198;2022-07-10T00:49:54;3.60;;;3.30;;
8594;SDS011;4335;48.860;9.198;2022-07-10T00:52:23;4.63;;;4.20;;
8594;SDS011;4335;48.860;9.198;2022-07-10T00:54:50;4.23;;;3.93;;
8594;SDS011;4335;48.860;9.198;2022-07-10T00:57:17;4.77;;;4.13;;
8594;SDS011;4335;48.860;9.198;2022-07-10T00:59:45;4.60;;;4.20;;
8594;SDS011;4335;48.860;9.198;2022-07-10T01:02:13;3.90;;;3.60;;
8594;SDS011;4335;48.860;9.198;2022-07-10T01:04:43;4.27;;;3.87;;
8594;SDS011;4335;48.860;9.198;2022-07-10T01:07:10;5.23;;;4.23;;
8594;SDS011;4335;48.860;9.198;2022-07-10T01:09:42;6.00;;;3.93;;
8594;SDS011;4335;48.860;9.198;2022-07-10T01:12:10;4.63;;;4.10;;
8594;SDS011;4335;48.860;9.198;2022-07-10T01:14:38;4.80;;;4.27;;
8594;SDS011;4335;48.860;9.198;2022-07-10T01:17:10;4.77;;;3.80;;
8594;SDS011;4335;48.860;9.198;2022-07-10T01:19:38;4.73;;;4.33;;
8594;SDS011;4335;48.860;9.198;2022-07-10T01:22:13;4.80;;;4.40;;
8594;SDS011;4335;48.860;9.198;2022-07-10T01:24:41;4.77;;;4.37;;
8594;SDS011;4335;48.860;9.198;2022-07-10T01:27:08;6.30;;;4.33;;
8594;SDS011;4335;48.860;9.198;2022-07-10T01:29:36;5.17;;;4.67;;
8594;SDS011;4335;48.860;9.198;2022-07-10T01:32:04;5.23;;;4.70;;
8594;SDS011;4335;48.860;9.198;2022-07-10T01:34:32;5.33;;;4.83;;
8594;SDS011;4335;48.860;9.198;2022-07-10T01:37:01;6.60;;;4.50;;
8594;SDS011;4335;48.860;9.198;2022-07-10T01:39:33;6.30;;;4.80;;
8594;SDS011;4335;48.860;9.198;2022-07-10T01:42:00;5.40;;;4.80;;
8594;SDS011;4335;48.860;9.198;2022-07-10T01:44:28;5.17;;;4.67;;
8594;SDS011;4335;48.860;9.198;2022-07-10T01:46:58;5.93;;;5.23;;
8594;SDS011;4335;48.860;9.198;2022-07-10T01:49:29;5.60;;;4.97;;
8594;SDS011;4335;48.860;9.198;2022-07-10T01:51:56;8.63;;;5.13;;
8594;SDS011;4335;48.860;9.198;2022-07-10T01:54:24;6.07;;;5.43;;
8594;SDS011;4335;48.860;9.198;2022-07-10T01:56:53;7.07;;;6.17;;
8594;SDS011;4335;48.860;9.198;2022-07-10T01:59:23;6.30;;;5.70;;
8594;SDS011;4335;48.860;9.198;2022-07-10T02:01:50;5.63;;;4.97;;
8594;SDS011;4335;48.860;9.198;2022-07-10T02:04:18;6.73;;;5.97;;
8594;SDS011;4335;48.860;9.198;2022-07-10T02:07:03;5.87;;;5.27;;
8594;SDS011;4335;48.860;9.198;2022-07-10T02:09:30;6.23;;;5.63;;
8594;SDS011;4335;48.860;9.198;2022-07-10T02:11:59;7.67;;;5.83;;
8594;SDS011;4335;48.860;9.198;2022-07-10T02:14:27;7.20;;;6.50;;
8594;SDS011;4335;48.860;9.198;2022-07-10T02:17:01;6.53;;;5.93;;
8594;SDS011;4335;48.860;9.198;2022-07-10T02:19:31;7.73;;;6.13;;
8594;SDS011;4335;48.860;9.198;2022-07-10T02:21:59;6.87;;;6.13;;
8594;SDS011;4335;48.860;9.198;2022-07-10T02:24:27;6.90;;;6.20;;
8594;SDS011;4335;48.860;9.198;2022-07-10T02:26:59;7.93;;;5.90;;
8594;SDS011;4335;48.860;9.198;2022-07-10T02:29:26;7.23;;;6.33;;
8594;SDS011;4335;48.860;9.198;2022-07-10T02:31:54;7.23;;;6.57;;
8594;SDS011;4335;48.860;9.198;2022-07-10T02:34:21;7.20;;;6.60;;
8594;SDS011;4335;48.860;9.198;2022-07-10T02:36:52;9.53;;;7.87;;
8594;SDS011;4335;48.860;9.198;2022-07-10T02:39:19;10.17;;;8.30;;
8594;SDS011;4335;48.860;9.198;2022-07-10T02:41:49;9.03;;;8.13;;
8594;SDS011;4335;48.860;9.198;2022-07-10T02:44:18;8.77;;;7.80;;
8594;SDS011;4335;48.860;9.198;2022-07-10T02:46:45;8.17;;;7.47;;
8594;SDS011;4335;48.860;9.198;2022-07-10T02:49:13;9.33;;;8.53;;
8594;SDS011;4335;48.860;9.198;2022-07-10T02:51:46;8.40;;;7.60;;
8594;SDS011;4335;48.860;9.198;2022-07-10T02:54:13;8.53;;;7.60;;
8594;SDS011;4335;48.860;9.198;2022-07-10T02:56:41;7.87;;;7.07;;
8594;SDS011;4335;48.860;9.198;2022-07-10T02:59:08;8.53;;;7.67;;
8594;SDS011;4335;48.860;9.198;2022-07-10T03:01:40;8.30;;;7.60;;
8594;SDS011;4335;48.860;9.198;2022-07-10T03:04:07;11.40;;;8.20;;
8594;SDS011;4335;48.860;9.198;2022-07-10T03:06:35;9.03;;;7.70;;
8594;SDS011;4335;48.860;9.198;2022-07-10T03:09:02;8.83;;;7.80;;
8594;SDS011;4335;48.860;9.198;2022-07-10T03:11:29;8.70;;;7.90;;
8594;SDS011;4335;48.860;9.198;2022-07-10T03:14:00;9.70;;;8.03;;
8594;SDS011;4335;48.860;9.198;2022-07-10T03:16:28;7.70;;;7.07;;
8594;SDS011;4335;48.860;9.198;2022-07-10T03:18:57;8.63;;;7.10;;
8594;SDS011;4335;48.860;9.198;2022-07-10T03:21:30;8.03;;;7.03;;
8594;SDS011;4335;48.860;9.198;2022-07-10T03:23:58;8.00;;;7.20;;
8594;SDS011;4335;48.860;9.198;2022-07-10T03:26:25;8.83;;;7.57;;
8594;SDS011;4335;48.860;9.198;2022-07-10T03:28:57;6.30;;;5.73;;
8594;SDS011;4335;48.860;9.198;2022-07-10T03:31:24;8.23;;;7.40;;
8594;SDS011;4335;48.860;9.198;2022-07-10T03:33:52;6.93;;;6.20;;
8594;SDS011;4335;48.860;9.198;2022-07-10T03:36:24;9.23;;;6.77;;
8594;SDS011;4335;48.860;9.198;2022-07-10T03:38:52;6.90;;;6.30;;
8594;SDS011;4335;48.860;9.198;2022-07-10T03:41:23;6.30;;;5.73;;
8594;SDS011;4335;48.860;9.198;2022-07-10T03:43:53;6.97;;;6.30;;
8594;SDS011;4335;48.860;9.198;2022-07-10T03:46:21;6.60;;;6.00;;
8594;SDS011;4335;48.860;9.198;2022-07-10T03:48:48;7.90;;;6.37;;
8594;SDS011;4335;48.860;9.198;2022-07-10T03:51:24;6.33;;;5.73;;
8594;SDS011;4335;48.860;9.198;2022-07-10T03:54:01;7.07;;;6.43;;
8594;SDS011;4335;48.860;9.198;2022-07-10T03:56:31;9.30;;;6.23;;
8594;SDS011;4335;48.860;9.198;2022-07-10T03:59:12;6.67;;;5.60;;
8594;SDS011;4335;48.860;9.198;2022-07-10T04:01:40;7.10;;;6.40;;
8594;SDS011;4335;48.860;9.198;2022-07-10T04:04:07;6.60;;;6.00;;
8594;SDS011;4335;48.860;9.198;2022-07-10T04:06:39;6.70;;;6.10;;
8594;SDS011;4335;48.860;9.198;2022-07-10T04:09:07;6.13;;;5.47;;
8594;SDS011;4335;48.860;9.198;2022-07-10T04:11:43;6.20;;;5.60;;
8594;SDS011;4335;48.860;9.198;2022-07-10T04:14:10;5.73;;;5.20;;
8594;SDS011;4335;48.860;9.198;2022-07-10T04:16:40;6.10;;;5.50;;
8594;SDS011;4335;48.860;9.198;2022-07-10T04:19:07;6.73;;;5.27;;
8594;SDS011;4335;48.860;9.198;2022-07-10T04:21:39;5.30;;;4.90;;
8594;SDS011;4335;48.860;9.198;2022-07-10T04:24:07;7.03;;;5.50;;
8594;SDS011;4335;48.860;9.198;2022-07-10T04:26:34;5.60;;;5.10;;
8594;SDS011;4335;48.860;9.198;2022-07-10T04:29:02;5.97;;;5.43;;
8594;SDS011;4335;48.860;9.198;2022-07-10T04:31:35;7.10;;;5.07;;
8594;SDS011;4335;48.860;9.198;2022-07-10T04:34:03;7.40;;;5.20;;
8594;SDS011;4335;48.860;9.198;2022-07-10T04:36:30;6.00;;;5.40;;
8594;SDS011;4335;48.860;9.198;2022-07-10T04:39:00;8.10;;;5.90;;
8594;SDS011;4335;48.860;9.198;2022-07-10T04:41:31;5.37;;;4.87;;
8594;SDS011;4335;48.860;9.198;2022-07-10T04:43:58;6.60;;;4.80;;
8594;SDS011;4335;48.860;9.198;2022-07-10T04:46:25;6.27;;;5.27;;
8594;SDS011;4335;48.860;9.198;2022-07-10T04:48:58;6.97;;;5.30;;
8594;SDS011;4335;48.860;9.198;2022-07-10T04:51:26;5.63;;;5.10;;
8594;SDS011;4335;48.860;9.198;2022-07-10T04:53:53;6.57;;;4.87;;
8594;SDS011;4335;48.860;9.198;2022-07-10T04:56:28;5.67;;;5.17;;
8594;SDS011;4335;48.860;9.198;2022-07-10T04:58:55;4.77;;;4.20;;
8594;SDS011;4335;48.860;9.198;2022-07-10T05:01:25;6.97;;;4.87;;
8594;SDS011;4335;48.860;9.198;2022-07-10T05:03:53;5.93;;;4.17;;
8594;SDS011;4335;48.860;9.198;2022-07-10T05:06:20;4.73;;;4.03;;
8594;SDS011;4335;48.860;9.198;2022-07-10T05:08:49;4.83;;;4.30;;
8594;SDS011;4335;48.860;9.198;2022-07-10T05:11:16;6.13;;;4.17;;
8594;SDS011;4335;48.860;9.198;2022-07-10T05:13:48;3.93;;;3.53;;
8594;SDS011;4335;48.860;9.198;2022-07-10T05:16:16;4.73;;;3.30;;
8594;SDS011;4335;48.860;9.198;2022-07-10T05:18:47;3.27;;;2.97;;
8594;SDS011;4335;48.860;9.198;2022-07-10T05:21:14;5.53;;;3.20;;
8594;SDS011;4335;48.860;9.198;2022-07-10T05:23:45;6.80;;;3.40;;
8594;SDS011;4335;48.860;9.198;2022-07-10T05:26:15;3.10;;;2.80;;
8594;SDS011;4335;48.860;9.198;2022-07-10T05:28:47;3.83;;;3.47;;
8594;SDS011;4335;48.860;9.198;2022-07-10T05:31:14;4.10;;;2.90;;
8594;SDS011;4335;48.860;9.198;2022-07-10T05:33:45;3.80;;;2.60;;
8594;SDS011;4335;48.860;9.198;2022-07-10T05:36:12;3.17;;;2.70;;
8594;SDS011;4335;48.860;9.198;2022-07-10T05:38:39;3.57;;;2.73;;
8594;SDS011;4335;48.860;9.198;2022-07-10T05:41:13;3.43;;;2.60;;
8594;SDS011;4335;48.860;9.198;2022-07-10T05:43:40;3.43;;;2.57;;
8594;SDS011;4335;48.860;9.198;2022-07-10T05:46:12;3.47;;;2.40;;
8594;SDS011;4335;48.860;9.198;2022-07-10T05:48:42;3.10;;;2.30;;
8594;SDS011;4335;48.860;9.198;2022-07-10T05:51:10;3.07;;;2.60;;
8594;SDS011;4335;48.860;9.198;2022-07-10T05:53:39;4.50;;;3.10;;
8594;SDS011;4335;48.860;9.198;2022-07-10T05:56:10;3.33;;;2.60;;
8594;SDS011;4335;48.860;9.198;2022-07-10T05:58:37;2.80;;;2.07;;
8594;SDS011;4335;48.860;9.198;2022-07-10T06:01:12;2.47;;;2.27;;
8594;SDS011;4335;48.860;9.198;2022-07-10T06:03:39;2.63;;;2.43;;
8594;SDS011;4335;48.860;9.198;2022-07-10T06:06:07;4.20;;;2.37;;
8594;SDS011;4335;48.860;9.198;2022-07-10T06:08:34;3.60;;;2.30;;
8594;SDS011;4335;48.860;9.198;2022-07-10T06:11:10;2.70;;;2.37;;
8594;SDS011;4335;48.860;9.198;2022-07-10T06:13:37;3.57;;;2.63;;
8594;SDS011;4335;48.860;9.198;2022-07-10T06:16:05;3.70;;;2.43;;
8594;SDS011;4335;48.860;9.198;2022-07-10T06:18:35;4.40;;;2.67;;
8594;SDS011;4335;48.860;9.198;2022-07-10T06:21:02;4.63;;;2.40;;
8594;SDS011;4335;48.860;9.198;2022-07-10T06:23:30;4.07;;;2.90;;
8594;SDS011;4335;48.860;9.198;2022-07-10T06:26:00;3.07;;;2.27;;
8594;SDS011;4335;48.860;9.198;2022-07-10T06:28:28;2.30;;;2.00;;
8594;SDS011;4335;48.860;9.198;2022-07-10T06:30:55;3.27;;;2.23;;
8594;SDS011;4335;48.860;9.198;2022-07-10T06:33:29;3.40;;;2.50;;
8594;SDS011;4335;48.860;9.198;2022-07-10T06:35:59;4.67;;;2.70;;
8594;SDS011;4335;48.860;9.198;2022-07-10T06:38:26;5.00;;;2.57;;
8594;SDS011;4335;48.860;9.198;2022-07-10T06:40:54;3.00;;;2.10;;
8594;SDS011;4335;48.860;9.198;2022-07-10T06:43:21;3.67;;;1.90;;
8594;SDS011;4335;48.860;9.198;2022-07-10T06:45:48;3.30;;;2.00;;
8594;SDS011;4335;48.860;9.198;2022-07-10T06:48:22;3.03;;;2.60;;
8594;SDS011;4335;48.860;9.198;2022-07-10T06:50:53;3.83;;;2.90;;
8594;SDS011;4335;48.860;9.198;2022-07-10T06:53:22;3.37;;;2.33;;
8594;SDS011;4335;48.860;9.198;2022-07-10T06:55:52;3.93;;;2.93;;
8594;SDS011;4335;48.860;9.198;2022-07-10T06:58:23;3.03;;;1.93;;
8594;SDS011;4335;48.860;9.198;2022-07-10T07:00:50;3.57;;;1.80;;
8594;SDS011;4335;48.860;9.198;2022-07-10T07:03:18;3.03;;;2.13;;
8594;SDS011;4335;48.860;9.198;2022-07-10T07:05:45;2.27;;;1.80;;
8594;SDS011;4335;48.860;9.198;2022-07-10T07:08:12;4.13;;;2.10;;
8594;SDS011;4335;48.860;9.198;2022-07-10T07:10:42;3.73;;;2.27;;
8594;SDS011;4335;48.860;9.198;2022-07-10T07:13:13;4.87;;;2.30;;
8594;SDS011;4335;48.860;9.198;2022-07-10T07:15:41;3.13;;;1.90;;
8594;SDS011;4335;48.860;9.198;2022-07-10T07:18:15;4.93;;;2.23;;
8594;SDS011;4335;48.860;9.198;2022-07-10T07:20:43;3.07;;;1.90;;
8594;SDS011;4335;48.860;9.198;2022-07-10T07:23:28;2.93;;;2.07;;
8594;SDS011;4335;48.860;9.198;2022-07-10T07:25:56;4.30;;;1.93;;
8594;SDS011;4335;48.860;9.198;2022-07-10T07:28:24;3.97;;;1.97;;
8594;SDS011;4335;48.860;9.198;2022-07-10T07:30:51;3.10;;;2.10;;
8594;SDS011;4335;48.860;9.198;2022-07-10T07:33:19;3.23;;;2.53;;
8594;SDS011;4335;48.860;9.198;2022-07-10T07:35:46;3.00;;;2.43;;
8594;SDS011;4335;48.860;9.198;2022-07-10T07:38:16;3.47;;;1.63;;
8594;SDS011;4335;48.860;9.198;2022-07-10T07:40:46;4.03;;;1.57;;
8594;SDS011;4335;48.860;9.198;2022-07-10T07:43:15;3.63;;;1.43;;
8594;SDS011;4335;48.860;9.198;2022-07-10T07:45:43;3.30;;;1.90;;
8594;SDS011;4335;48.860;9.198;2022-07-10T07:48:10;2.23;;;1.70;;
8594;SDS011;4335;48.860;9.198;2022-07-10T07:50:37;5.30;;;2.00;;
8594;SDS011;4335;48.860;9.198;2022-07-10T07:53:05;2.47;;;2.07;;
8594;SDS011;4335;48.860;9.198;2022-07-10T07:55:35;4.17;;;1.87;;
8594;SDS011;4335;48.860;9.198;2022-07-10T07:58:08;5.47;;;1.97;;
8594;SDS011;4335;48.860;9.198;2022-07-10T08:00:37;3.27;;;2.00;;
8594;SDS011;4335;48.860;9.198;2022-07-10T08:03:04;4.27;;;1.90;;
8594;SDS011;4335;48.860;9.198;2022-07-10T08:05:36;2.57;;;1.50;;
8594;SDS011;4335;48.860;9.198;2022-07-10T08:08:04;3.00;;;1.93;;
8594;SDS011;4335;48.860;9.198;2022-07-10T08:10:33;3.43;;;1.80;;
8594;SDS011;4335;48.860;9.198;2022-07-10T08:13:01;4.27;;;1.97;;
8594;SDS011;4335;48.860;9.198;2022-07-10T08:15:33;2.43;;;1.50;;
8594;SDS011;4335;48.860;9.198;2022-07-10T08:18:05;3.03;;;1.80;;
8594;SDS011;4335;48.860;9.198;2022-07-10T08:20:32;1.97;;;1.50;;
8594;SDS011;4335;48.860;9.198;2022-07-10T08:23:00;3.80;;;1.73;;
8594;SDS011;4335;48.860;9.198;2022-07-10T08:25:27;3.50;;;1.93;;
8594;SDS011;4335;48.860;9.198;2022-07-10T08:28:01;2.23;;;1.50;;
8594;SDS011;4335;48.860;9.198;2022-07-10T08:30:31;2.13;;;1.30;;
8594;SDS011;4335;48.860;9.198;2022-07-10T08:32:58;2.73;;;2.10;;
8594;SDS011;4335;48.860;9.198;2022-07-10T08:35:27;2.63;;;1.73;;
8594;SDS011;4335;48.860;9.198;2022-07-10T08:37:55;2.80;;;1.73;;
8594;SDS011;4335;48.860;9.198;2022-07-10T08:40:25;1.70;;;1.40;;
8594;SDS011;4335;48.860;9.198;2022-07-10T08:42:57;2.73;;;1.80;;
8594;SDS011;4335;48.860;9.198;2022-07-10T08:45:24;2.37;;;1.40;;
8594;SDS011;4335;48.860;9.198;2022-07-10T08:47:54;2.53;;;1.60;;
8594;SDS011;4335;48.860;9.198;2022-07-10T08:50:28;2.20;;;1.40;;
8594;SDS011;4335;48.860;9.198;2022-07-10T08:52:58;1.93;;;1.30;;
8594;SDS011;4335;48.860;9.198;2022-07-10T08:55:31;4.83;;;1.67;;
8594;SDS011;4335;48.860;9.198;2022-07-10T08:58:04;1.70;;;1.40;;
8594;SDS011;4335;48.860;9.198;2022-07-10T09:00:34;3.83;;;1.60;;
8594;SDS011;4335;48.860;9.198;2022-07-10T09:03:02;1.50;;;1.40;;
8594;SDS011;4335;48.860;9.198;2022-07-10T09:05:31;3.00;;;1.50;;
8594;SDS011;4335;48.860;9.198;2022-07-10T09:07:58;2.93;;;1.67;;
8594;SDS011;4335;48.860;9.198;2022-07-10T09:10:29;3.23;;;1.50;;
8594;SDS011;4335;48.860;9.198;2022-07-10T09:13:00;4.03;;;1.83;;
8594;SDS011;4335;48.860;9.198;2022-07-10T09:15:31;1.30;;;1.20;;
8594;SDS011;4335;48.860;9.198;2022-07-10T09:18:04;4.30;;;1.47;;
8594;SDS011;4335;48.860;9.198;2022-07-10T09:20:34;11.30;;;1.97;;
8594;SDS011;4335;48.860;9.198;2022-07-10T09:23:18;1.47;;;1.07;;
8594;SDS011;4335;48.860;9.198;2022-07-10T09:25:48;3.13;;;1.80;;
8594;SDS011;4335;48.860;9.198;2022-07-10T09:28:17;3.83;;;1.30;;
8594;SDS011;4335;48.860;9.198;2022-07-10T09:30:46;2.55;;;1.30;;
8594;SDS011;4335;48.860;9.198;2022-07-10T09:33:18;1.80;;;1.40;;
8594;SDS011;4335;48.860;9.198;2022-07-10T09:35:56;2.72;;;1.63;;
8594;SDS011;4335;48.860;9.198;2022-07-10T09:41:16;1.85;;;1.45;;
8594;SDS011;4335;48.860;9.198;2022-07-10T09:43:50;2.97;;;1.38;;
8594;SDS011;4335;48.860;9.198;2022-07-10T09:46:22;3.72;;;1.60;;
8594;SDS011;4335;48.860;9.198;2022-07-10T09:49:14;2.22;;;1.30;;
8594;SDS011;4335;48.860;9.198;2022-07-10T09:51:44;2.20;;;1.20;;
8594;SDS011;4335;48.860;9.198;2022-07-10T09:54:12;3.30;;;1.40;;
8594;SDS011;4335;48.860;9.198;2022-07-10T09:56:44;3.38;;;1.58;;
8594;SDS011;4335;48.860;9.198;2022-07-10T09:59:12;3.17;;;1.70;;
8594;SDS011;4335;48.860;9.198;2022-07-10T10:01:51;2.97;;;1.55;;
8594;SDS011;4335;48.860;9.198;2022-07-10T10:04:22;2.03;;;1.33;;
8594;SDS011;4335;48.860;9.198;2022-07-10T10:06:52;4.07;;;1.55;;
8594;SDS011;4335;48.860;9.198;2022-07-10T10:09:23;1.90;;;1.35;;
8594;SDS011;4335;48.860;9.198;2022-07-10T10:11:53;3.20;;;1.50;;
8594;SDS011;4335;48.860;9.198;2022-07-10T10:14:25;3.50;;;1.33;;
8594;SDS011;4335;48.860;9.198;2022-07-10T10:16:55;4.03;;;1.95;;
8594;SDS011;4335;48.860;9.198;2022-07-10T10:19:23;2.15;;;1.33;;
8594;SDS011;4335;48.860;9.198;2022-07-10T10:22:09;4.97;;;1.65;;
8594;SDS011;4335;48.860;9.198;2022-07-10T10:24:40;4.63;;;1.90;;
8594;SDS011;4335;48.860;9.198;2022-07-10T10:27:13;2.92;;;1.50;;
8594;SDS011;4335;48.860;9.198;2022-07-10T10:29:42;3.08;;;1.40;;
8594;SDS011;4335;48.860;9.198;2022-07-10T10:32:11;2.92;;;1.13;;
8594;SDS011;4335;48.860;9.198;2022-07-10T10:34:39;2.38;;;1.40;;
8594;SDS011;4335;48.860;9.198;2022-07-10T10:40:03;2.17;;;1.40;;
8594;SDS011;4335;48.860;9.198;2022-07-10T10:42:31;2.30;;;1.50;;
8594;SDS011;4335;48.860;9.198;2022-07-10T10:47:58;4.20;;;2.30;;
8594;SDS011;4335;48.860;9.198;2022-07-10T10:50:39;1.87;;;1.37;;
8594;SDS011;4335;48.860;9.198;2022-07-10T10:53:16;2.43;;;1.53;;
8594;SDS011;4335;48.860;9.198;2022-07-10T10:58:50;2.00;;;1.50;;
8594;SDS011;4335;48.860;9.198;2022-07-10T11:01:25;5.70;;;2.07;;
8594;SDS011;4335;48.860;9.198;2022-07-10T11:04:13;3.50;;;1.80;;
8594;SDS011;4335;48.860;9.198;2022-07-10T11:06:43;3.03;;;1.70;;
8594;SDS011;4335;48.860;9.198;2022-07-10T11:09:25;2.53;;;1.57;;
8594;SDS011;4335;48.860;9.198;2022-07-10T11:11:58;2.50;;;1.50;;
8594;SDS011;4335;48.860;9.198;2022-07-10T11:14:37;2.47;;;1.50;;
8594;SDS011;4335;48.860;9.198;2022-07-10T11:17:10;3.17;;;1.53;;
8594;SDS011;4335;48.860;9.198;2022-07-10T11:19:38;3.43;;;2.00;;
8594;SDS011;4335;48.860;9.198;2022-07-10T11:22:13;3.27;;;2.53;;
8594;SDS011;4335;48.860;9.198;2022-07-10T11:24:59;3.73;;;1.70;;
8594;SDS011;4335;48.860;9.198;2022-07-10T11:30:42;2.47;;;1.40;;
8594;SDS011;4335;48.860;9.198;2022-07-10T11:33:15;4.83;;;1.50;;
8594;SDS011;4335;48.860;9.198;2022-07-10T11:35:47;2.80;;;1.47;;
8594;SDS011;4335;48.860;9.198;2022-07-10T11:38:19;2.03;;;1.50;;
8594;SDS011;4335;48.860;9.198;2022-07-10T11:40:51;6.53;;;1.77;;
8594;SDS011;4335;48.860;9.198;2022-07-10T11:43:22;2.33;;;1.50;;
8594;SDS011;4335;48.860;9.198;2022-07-10T11:45:50;3.67;;;1.40;;
8594;SDS011;4335;48.860;9.198;2022-07-10T11:48:22;2.57;;;1.50;;
8594;SDS011;4335;48.860;9.198;2022-07-10T11:50:50;3.03;;;1.40;;
8594;SDS011;4335;48.860;9.198;2022-07-10T11:53:24;2.87;;;1.10;;
8594;SDS011;4335;48.860;9.198;2022-07-10T11:55:54;1.27;;;1.17;;
8594;SDS011;4335;48.860;9.198;2022-07-10T11:58:25;3.83;;;1.40;;
8594;SDS011;4335;48.860;9.198;2022-07-10T12:00:59;1.80;;;1.40;;
8594;SDS011;4335;48.860;9.198;2022-07-10T12:03:32;1.30;;;0.90;;
8594;SDS011;4335;48.860;9.198;2022-07-10T12:06:03;2.87;;;1.20;;
8594;SDS011;4335;48.860;9.198;2022-07-10T12:08:41;1.63;;;1.10;;
8594;SDS011;4335;48.860;9.198;2022-07-10T12:11:13;2.77;;;1.20;;
8594;SDS011;4335;48.860;9.198;2022-07-10T12:13:51;3.67;;;2.50;;
8594;SDS011;4335;48.860;9.198;2022-07-10T12:16:19;2.30;;;1.60;;
8594;SDS011;4335;48.860;9.198;2022-07-10T12:18:48;1.70;;;1.10;;
8594;SDS011;4335;48.860;9.198;2022-07-10T12:21:19;1.20;;;1.10;;
8594;SDS011;4335;48.860;9.198;2022-07-10T12:23:46;2.17;;;1.30;;
8594;SDS011;4335;48.860;9.198;2022-07-10T12:26:20;3.43;;;1.60;;
8594;SDS011;4335;48.860;9.198;2022-07-10T12:28:48;1.73;;;1.10;;
8594;SDS011;4335;48.860;9.198;2022-07-10T12:31:20;2.20;;;1.57;;
8594;SDS011;4335;48.860;9.198;2022-07-10T12:33:52;2.10;;;1.20;;
8594;SDS011;4335;48.860;9.198;2022-07-10T12:36:22;1.83;;;1.20;;
8594;SDS011;4335;48.860;9.198;2022-07-10T12:38:54;3.73;;;1.40;;
8594;SDS011;4335;48.860;9.198;2022-07-10T12:41:24;3.83;;;1.00;;
8594;SDS011;4335;48.860;9.198;2022-07-10T12:43:52;1.47;;;1.10;;
8594;SDS011;4335;48.860;9.198;2022-07-10T12:46:21;1.30;;;1.20;;
8594;SDS011;4335;48.860;9.198;2022-07-10T12:49:04;2.63;;;1.20;;
8594;SDS011;4335;48.860;9.198;2022-07-10T12:51:32;1.87;;;1.20;;
8594;SDS011;4335;48.860;9.198;2022-07-10T12:54:01;1.90;;;1.10;;
8594;SDS011;4335;48.860;9.198;2022-07-10T12:56:30;1.30;;;0.93;;
8594;SDS011;4335;48.860;9.198;2022-07-10T12:59:00;2.20;;;1.10;;
8594;SDS011;4335;48.860;9.198;2022-07-10T13:01:38;1.13;;;1.03;;
8594;SDS011;4335;48.860;9.198;2022-07-10T13:04:07;3.13;;;1.70;;
8594;SDS011;4335;48.860;9.198;2022-07-10T13:06:35;2.97;;;1.10;;
8594;SDS011;4335;48.860;9.198;2022-07-10T13:09:17;2.53;;;1.20;;
8594;SDS011;4335;48.860;9.198;2022-07-10T13:11:48;2.00;;;1.23;;
8594;SDS011;4335;48.860;9.198;2022-07-10T13:14:16;2.93;;;1.13;;
8594;SDS011;4335;48.860;9.198;2022-07-10T13:16:43;3.00;;;1.50;;
8594;SDS011;4335;48.860;9.198;2022-07-10T13:19:13;2.83;;;1.40;;
8594;SDS011;4335;48.860;9.198;2022-07-10T13:21:41;2.40;;;1.20;;
8594;SDS011;4335;48.860;9.198;2022-07-10T13:24:08;2.03;;;1.13;;
8594;SDS011;4335;48.860;9.198;2022-07-10T13:26:36;2.07;;;1.00;;
8594;SDS011;4335;48.860;9.198;2022-07-10T13:29:05;1.27;;;1.13;;
8594;SDS011;4335;48.860;9.198;2022-07-10T13:31:32;2.20;;;1.50;;
8594;SDS011;4335;48.860;9.198;2022-07-10T13:34:00;2.50;;;1.30;;
8594;SDS011;4335;48.860;9.198;2022-07-10T13:36:27;3.23;;;1.90;;
8594;SDS011;4335;48.860;9.198;2022-07-10T13:38:55;1.10;;;1.00;;
8594;SDS011;4335;48.860;9.198;2022-07-10T13:41:22;2.37;;;1.13;;
8594;SDS011;4335;48.860;9.198;2022-07-10T13:43:56;3.27;;;1.50;;
8594;SDS011;4335;48.860;9.198;2022-07-10T13:46:24;1.60;;;1.10;;
8594;SDS011;4335;48.860;9.198;2022-07-10T13:48:52;1.40;;;1.30;;
8594;SDS011;4335;48.860;9.198;2022-07-10T13:51:23;2.13;;;1.50;;
8594;SDS011;4335;48.860;9.198;2022-07-10T13:53:53;2.57;;;1.43;;
8594;SDS011;4335;48.860;9.198;2022-07-10T13:56:23;2.93;;;1.73;;
8594;SDS011;4335;48.860;9.198;2022-07-10T13:58:51;2.80;;;1.73;;
8594;SDS011;4335;48.860;9.198;2022-07-10T14:01:19;1.90;;;1.37;;
8594;SDS011;4335;48.860;9.198;2022-07-10T14:03:48;1.43;;;0.90;;
8594;SDS011;4335;48.860;9.198;2022-07-10T14:06:17;2.17;;;1.10;;
8594;SDS011;4335;48.860;9.198;2022-07-10T14:08:45;2.60;;;1.07;;
8594;SDS011;4335;48.860;9.198;2022-07-10T14:11:13;2.07;;;1.07;;
8594;SDS011;4335;48.860;9.198;2022-07-10T14:13:43;2.33;;;1.20;;
8594;SDS011;4335;48.860;9.198;2022-07-10T14:16:11;2.57;;;1.53;;
8594;SDS011;4335;48.860;9.198;2022-07-10T14:18:38;3.50;;;1.30;;
8594;SDS011;4335;48.860;9.198;2022-07-10T14:21:08;2.03;;;1.20;;
8594;SDS011;4335;48.860;9.198;2022-07-10T14:23:37;1.47;;;0.90;;
8594;SDS011;4335;48.860;9.198;2022-07-10T14:26:06;2.33;;;0.90;;
8594;SDS011;4335;48.860;9.198;2022-07-10T14:28:34;2.17;;;1.00;;
8594;SDS011;4335;48.860;9.198;2022-07-10T14:31:05;1.43;;;1.10;;
8594;SDS011;4335;48.860;9.198;2022-07-10T14:33:39;1.87;;;1.20;;
8594;SDS011;4335;48.860;9.198;2022-07-10T14:36:08;2.43;;;1.20;;
8594;SDS011;4335;48.860;9.198;2022-07-10T14:38:36;1.83;;;0.97;;
8594;SDS011;4335;48.860;9.198;2022-07-10T14:41:03;2.30;;;0.90;;
8594;SDS011;4335;48.860;9.198;2022-07-10T14:43:34;1.83;;;1.10;;
8594;SDS011;4335;48.860;9.198;2022-07-10T14:46:02;2.00;;;1.20;;
8594;SDS011;4335;48.860;9.198;2022-07-10T14:48:34;4.23;;;1.03;;
8594;SDS011;4335;48.860;9.198;2022-07-10T14:51:01;3.33;;;1.00;;
8594;SDS011;4335;48.860;9.198;2022-07-10T14:53:30;1.70;;;1.10;;
8594;SDS011;4335;48.860;9.198;2022-07-10T14:56:03;1.80;;;1.20;;
8594;SDS011;4335;48.860;9.198;2022-07-10T14:58:32;2.47;;;1.00;;
8594;SDS011;4335;48.860;9.198;2022-07-10T15:00:59;2.80;;;2.00;;
8594;SDS011;4335;48.860;9.198;2022-07-10T15:03:28;1.67;;;1.10;;
8594;SDS011;4335;48.860;9.198;2022-07-10T15:05:55;1.67;;;1.10;;
8594;SDS011;4335;48.860;9.198;2022-07-10T15:08:23;1.33;;;0.87;;
8594;SDS011;4335;48.860;9.198;2022-07-10T15:10:52;0.90;;;0.73;;
8594;SDS011;4335;48.860;9.198;2022-07-10T15:13:20;1.93;;;0.90;;
8594;SDS011;4335;48.860;9.198;2022-07-10T15:15:47;1.87;;;1.10;;
8594;SDS011;4335;48.860;9.198;2022-07-10T15:18:19;2.80;;;1.60;;
8594;SDS011;4335;48.860;9.198;2022-07-10T15:20:47;2.57;;;1.30;;
8594;SDS011;4335;48.860;9.198;2022-07-10T15:23:15;1.70;;;1.07;;
8594;SDS011;4335;48.860;9.198;2022-07-10T15:25:42;4.27;;;1.20;;
8594;SDS011;4335;48.860;9.198;2022-07-10T15:28:11;2.23;;;1.27;;
8594;SDS011;4335;48.860;9.198;2022-07-10T15:30:39;1.90;;;1.00;;
8594;SDS011;4335;48.860;9.198;2022-07-10T15:33:14;2.40;;;1.20;;
8594;SDS011;4335;48.860;9.198;2022-07-10T15:35:41;2.10;;;1.20;;
8594;SDS011;4335;48.860;9.198;2022-07-10T15:38:09;1.63;;;1.10;;
8594;SDS011;4335;48.860;9.198;2022-07-10T15:40:39;2.73;;;1.30;;
8594;SDS011;4335;48.860;9.198;2022-07-10T15:43:07;2.70;;;1.20;;
8594;SDS011;4335;48.860;9.198;2022-07-10T15:45:38;4.20;;;1.43;;